Terminal Aerodrome Forecast
Issued by NWS

Home | Current Version | Previous Version | Graphics & Text | Print | Product List | Glossary On
Versions: 1 2 3 4 5 6 7 8 9 10 11 12 13 14 15 16 17 18
000
FTUS43 KMPX 271700
TAFAXN
TAF
KAXN 271720Z 2718/2818 32017G27KT P6SM VCSH SCT015 OVC030
     FM272000 33014G24KT P6SM VCSH SCT015 BKN025 OVC050
     FM280100 35009KT P6SM BKN050
     FM280500 34005KT P6SM SKC
     FM281600 33008KT P6SM SCT040=

USA.gov is the U.S. government's official web portal to all federal, state and local government web resources and services.